sensor_id;sensor_type;location;lat;lon;timestamp;pressure;altitude;pressure_sealevel;temperature;humidity
17525;BME280;40431;52.198;9.902;2023-02-19T00:01:25;100554.47;;;8.45;100.00
17525;BME280;40431;52.198;9.902;2023-02-19T00:03:53;100549.81;;;8.48;100.00
17525;BME280;40431;52.198;9.902;2023-02-19T00:06:21;100555.22;;;8.48;100.00
17525;BME280;40431;52.198;9.902;2023-02-19T00:08:47;100552.28;;;8.53;100.00
17525;BME280;40431;52.198;9.902;2023-02-19T00:11:15;100556.81;;;8.52;100.00
17525;BME280;40431;52.198;9.902;2023-02-19T00:13:43;100568.41;;;8.55;100.00
17525;BME280;40431;52.198;9.902;2023-02-19T00:16:12;100566.97;;;8.47;100.00
17525;BME280;40431;52.198;9.902;2023-02-19T00:18:41;100562.22;;;8.52;100.00
17525;BME280;40431;52.198;9.902;2023-02-19T00:21:08;100562.34;;;8.49;100.00
17525;BME280;40431;52.198;9.902;2023-02-19T00:23:35;100549.81;;;8.48;100.00
17525;BME280;40431;52.198;9.902;2023-02-19T00:26:02;100545.28;;;8.49;100.00
17525;BME280;40431;52.198;9.902;2023-02-19T00:28:28;100546.00;;;8.52;100.00
17525;BME280;40431;52.198;9.902;2023-02-19T00:30:55;100537.25;;;8.47;100.00
17525;BME280;40431;52.198;9.902;2023-02-19T00:33:21;100541.53;;;8.51;100.00
17525;BME280;40431;52.198;9.902;2023-02-19T00:35:49;100531.59;;;8.52;100.00
17525;BME280;40431;52.198;9.902;2023-02-19T00:38:15;100531.53;;;8.54;100.00
17525;BME280;40431;52.198;9.902;2023-02-19T00:40:41;100544.06;;;8.55;100.00
17525;BME280;40431;52.198;9.902;2023-02-19T00:43:08;100530.56;;;8.55;100.00
17525;BME280;40431;52.198;9.902;2023-02-19T00:45:34;100534.84;;;8.59;100.00
17525;BME280;40431;52.198;9.902;2023-02-19T00:48:01;100531.75;;;8.66;100.00
17525;BME280;40431;52.198;9.902;2023-02-19T00:50:27;100519.44;;;8.61;100.00
17525;BME280;40431;52.198;9.902;2023-02-19T00:52:55;100517.53;;;8.63;100.00
17525;BME280;40431;52.198;9.902;2023-02-19T00:55:21;100512.13;;;8.63;100.00
17525;BME280;40431;52.198;9.902;2023-02-19T00:57:47;100498.63;;;8.63;100.00
17525;BME280;40431;52.198;9.902;2023-02-19T01:00:14;100489.28;;;8.68;100.00
17525;BME280;40431;52.198;9.902;2023-02-19T01:02:40;100473.50;;;8.61;100.00
17525;BME280;40431;52.198;9.902;2023-02-19T01:05:07;100460.91;;;8.60;100.00
17525;BME280;40431;52.198;9.902;2023-02-19T01:07:34;100465.19;;;8.64;100.00
17525;BME280;40431;52.198;9.902;2023-02-19T01:10:02;100471.81;;;8.58;100.00
17525;BME280;40431;52.198;9.902;2023-02-19T01:12:28;100474.34;;;8.61;100.00
17525;BME280;40431;52.198;9.902;2023-02-19T01:14:55;100468.78;;;8.64;100.00
17525;BME280;40431;52.198;9.902;2023-02-19T01:17:21;100474.13;;;8.66;100.00
17525;BME280;40431;52.198;9.902;2023-02-19T01:19:48;100480.47;;;8.65;100.00
17525;BME280;40431;52.198;9.902;2023-02-19T01:22:14;100475.25;;;8.62;100.00
17525;BME280;40431;52.198;9.902;2023-02-19T01:24:41;100466.19;;;8.63;100.00
17525;BME280;40431;52.198;9.902;2023-02-19T01:27:08;100449.78;;;8.66;100.00
17525;BME280;40431;52.198;9.902;2023-02-19T01:29:35;100444.19;;;8.69;100.00
17525;BME280;40431;52.198;9.902;2023-02-19T01:32:02;100452.22;;;8.71;100.00
17525;BME280;40431;52.198;9.902;2023-02-19T01:34:28;100456.06;;;8.66;100.00
17525;BME280;40431;52.198;9.902;2023-02-19T01:36:57;100458.66;;;8.68;100.00
17525;BME280;40431;52.198;9.902;2023-02-19T01:39:24;100462.94;;;8.72;100.00
17525;BME280;40431;52.198;9.902;2023-02-19T01:41:50;100472.81;;;8.73;100.00
17525;BME280;40431;52.198;9.902;2023-02-19T01:47:21;100489.38;;;8.67;100.00
17525;BME280;40431;52.198;9.902;2023-02-19T01:49:51;100478.41;;;8.70;100.00
17525;BME280;40431;52.198;9.902;2023-02-19T01:52:22;100473.56;;;8.59;100.00
17525;BME280;40431;52.198;9.902;2023-02-19T01:54:50;100472.84;;;8.56;100.00
17525;BME280;40431;52.198;9.902;2023-02-19T01:57:19;100469.97;;;8.59;100.00
17525;BME280;40431;52.198;9.902;2023-02-19T01:59:49;100469.03;;;8.60;100.00
17525;BME280;40431;52.198;9.902;2023-02-19T02:02:19;100464.84;;;8.54;100.00
17525;BME280;40431;52.198;9.902;2023-02-19T02:04:47;100465.78;;;8.53;100.00
17525;BME280;40431;52.198;9.902;2023-02-19T02:07:13;100478.25;;;8.56;100.00
17525;BME280;40431;52.198;9.902;2023-02-19T02:09:54;100483.94;;;8.51;100.00
17525;BME280;40431;52.198;9.902;2023-02-19T02:12:38;100479.00;;;8.42;100.00
17525;BME280;40431;52.198;9.902;2023-02-19T02:15:05;100468.50;;;8.35;100.00
17525;BME280;40431;52.198;9.902;2023-02-19T02:17:38;100456.81;;;8.35;100.00
17525;BME280;40431;52.198;9.902;2023-02-19T02:20:26;100458.25;;;8.25;100.00
17525;BME280;40431;52.198;9.902;2023-02-19T02:23:00;100460.16;;;8.23;100.00
17525;BME280;40431;52.198;9.902;2023-02-19T02:25:50;100455.56;;;8.25;100.00
17525;BME280;40431;52.198;9.902;2023-02-19T02:28:37;100444.75;;;8.25;100.00
17525;BME280;40431;52.198;9.902;2023-02-19T02:31:13;100441.25;;;8.23;100.00
17525;BME280;40431;52.198;9.902;2023-02-19T02:33:45;100440.00;;;8.12;100.00
17525;BME280;40431;52.198;9.902;2023-02-19T02:36:16;100445.25;;;8.15;100.00
17525;BME280;40431;52.198;9.902;2023-02-19T02:38:45;100445.25;;;8.15;100.00
17525;BME280;40431;52.198;9.902;2023-02-19T02:41:13;100454.13;;;8.17;100.00
17525;BME280;40431;52.198;9.902;2023-02-19T02:43:40;100448.88;;;8.14;100.00
17525;BME280;40431;52.198;9.902;2023-02-19T02:46:11;100450.47;;;8.18;100.00
17525;BME280;40431;52.198;9.902;2023-02-19T02:48:40;100461.09;;;8.22;100.00
17525;BME280;40431;52.198;9.902;2023-02-19T02:51:13;100452.94;;;8.23;100.00
17525;BME280;40431;52.198;9.902;2023-02-19T02:53:44;100451.91;;;8.26;100.00
17525;BME280;40431;52.198;9.902;2023-02-19T02:56:30;100453.50;;;8.30;100.00
17525;BME280;40431;52.198;9.902;2023-02-19T02:58:58;100456.97;;;8.32;100.00
17525;BME280;40431;52.198;9.902;2023-02-19T03:01:30;100456.66;;;8.38;100.00
17525;BME280;40431;52.198;9.902;2023-02-19T03:04:22;100455.44;;;8.44;100.00
17525;BME280;40431;52.198;9.902;2023-02-19T03:06:51;100439.16;;;8.45;100.00
17525;BME280;40431;52.198;9.902;2023-02-19T03:09:20;100444.34;;;8.50;100.00
17525;BME280;40431;52.198;9.902;2023-02-19T03:11:56;100449.66;;;8.51;100.00
17525;BME280;40431;52.198;9.902;2023-02-19T03:14:45;100442.34;;;8.54;100.00
17525;BME280;40431;52.198;9.902;2023-02-19T03:17:35;100448.72;;;8.52;100.00
17525;BME280;40431;52.198;9.902;2023-02-19T03:20:23;100439.97;;;8.47;100.00
17525;BME280;40431;52.198;9.902;2023-02-19T03:22:51;100437.28;;;8.47;100.00
17525;BME280;40431;52.198;9.902;2023-02-19T03:25:19;100443.44;;;8.49;100.00
17525;BME280;40431;52.198;9.902;2023-02-19T03:28:07;100444.34;;;8.50;100.00
17525;BME280;40431;52.198;9.902;2023-02-19T03:30:39;100446.63;;;8.58;100.00
17525;BME280;40431;52.198;9.902;2023-02-19T03:33:11;100438.84;;;8.51;100.00
17525;BME280;40431;52.198;9.902;2023-02-19T03:35:41;100437.72;;;8.56;100.00
17525;BME280;40431;52.198;9.902;2023-02-19T03:38:12;100441.47;;;8.53;100.00
17525;BME280;40431;52.198;9.902;2023-02-19T03:40:48;100441.38;;;8.55;100.00
17525;BME280;40431;52.198;9.902;2023-02-19T03:43:19;100442.94;;;8.59;100.00
17525;BME280;40431;52.198;9.902;2023-02-19T03:45:52;100444.78;;;8.58;100.00
17525;BME280;40431;52.198;9.902;2023-02-19T03:48:29;100448.72;;;8.52;100.00
17525;BME280;40431;52.198;9.902;2023-02-19T03:51:03;100458.56;;;8.54;100.00
17525;BME280;40431;52.198;9.902;2023-02-19T03:53:37;100453.16;;;8.54;100.00
17525;BME280;40431;52.198;9.902;2023-02-19T03:56:12;100460.38;;;8.53;100.00
17525;BME280;40431;52.198;9.902;2023-02-19T03:58:48;100456.72;;;8.54;100.00
17525;BME280;40431;52.198;9.902;2023-02-19T04:01:19;100475.75;;;8.52;100.00
17525;BME280;40431;52.198;9.902;2023-02-19T04:03:51;100497.84;;;8.26;100.00
17525;BME280;40431;52.198;9.902;2023-02-19T04:06:24;100494.53;;;7.66;100.00
17525;BME280;40431;52.198;9.902;2023-02-19T04:08:53;100496.03;;;7.16;100.00
17525;BME280;40431;52.198;9.902;2023-02-19T04:11:21;100493.63;;;6.91;100.00
17525;BME280;40431;52.198;9.902;2023-02-19T04:13:54;100511.13;;;6.82;100.00
17525;BME280;40431;52.198;9.902;2023-02-19T04:16:25;100503.81;;;6.65;100.00
17525;BME280;40431;52.198;9.902;2023-02-19T04:18:56;100517.13;;;6.68;100.00
17525;BME280;40431;52.198;9.902;2023-02-19T04:21:25;100524.84;;;6.57;100.00
17525;BME280;40431;52.198;9.902;2023-02-19T04:23:55;100526.94;;;6.50;100.00
17525;BME280;40431;52.198;9.902;2023-02-19T04:26:24;100537.09;;;6.44;100.00
17525;BME280;40431;52.198;9.902;2023-02-19T04:28:50;100544.44;;;6.40;100.00
17525;BME280;40431;52.198;9.902;2023-02-19T04:31:16;100561.69;;;6.36;100.00
17525;BME280;40431;52.198;9.902;2023-02-19T04:33:43;100557.91;;;6.40;100.00
17525;BME280;40431;52.198;9.902;2023-02-19T04:36:10;100563.03;;;6.46;100.00
17525;BME280;40431;52.198;9.902;2023-02-19T04:38:37;100564.38;;;6.36;100.00
17525;BME280;40431;52.198;9.902;2023-02-19T04:41:03;100568.53;;;6.43;100.00
17525;BME280;40431;52.198;9.902;2023-02-19T04:43:30;100572.84;;;6.27;100.00
17525;BME280;40431;52.198;9.902;2023-02-19T04:45:58;100586.38;;;6.25;100.00
17525;BME280;40431;52.198;9.902;2023-02-19T04:48:25;100581.59;;;6.32;100.00
17525;BME280;40431;52.198;9.902;2023-02-19T04:50:51;100589.41;;;6.17;100.00
17525;BME280;40431;52.198;9.902;2023-02-19T04:53:19;100589.31;;;5.98;100.00
17525;BME280;40431;52.198;9.902;2023-02-19T04:55:45;100596.59;;;5.95;100.00
17525;BME280;40431;52.198;9.902;2023-02-19T04:58:12;100603.84;;;5.93;100.00
17525;BME280;40431;52.198;9.902;2023-02-19T05:00:39;100613.41;;;5.78;100.00
17525;BME280;40431;52.198;9.902;2023-02-19T05:03:05;100623.41;;;5.74;100.00
17525;BME280;40431;52.198;9.902;2023-02-19T05:05:31;100625.94;;;5.79;100.00
17525;BME280;40431;52.198;9.902;2023-02-19T05:07:58;100622.41;;;5.77;100.00
17525;BME280;40431;52.198;9.902;2023-02-19T05:10:25;100634.94;;;5.78;100.00
17525;BME280;40431;52.198;9.902;2023-02-19T05:12:53;100634.16;;;5.74;100.00
17525;BME280;40431;52.198;9.902;2023-02-19T05:15:19;100650.59;;;5.68;100.00
17525;BME280;40431;52.198;9.902;2023-02-19T05:17:46;100648.34;;;5.56;100.00
17525;BME280;40431;52.198;9.902;2023-02-19T05:20:12;100663.69;;;5.54;100.00
17525;BME280;40431;52.198;9.902;2023-02-19T05:22:38;100671.19;;;5.45;100.00
17525;BME280;40431;52.198;9.902;2023-02-19T05:25:05;100678.59;;;5.39;100.00
17525;BME280;40431;52.198;9.902;2023-02-19T05:27:32;100683.97;;;5.39;100.00
17525;BME280;40431;52.198;9.902;2023-02-19T05:29:59;100693.25;;;5.30;100.00
17525;BME280;40431;52.198;9.902;2023-02-19T05:32:25;100705.81;;;5.29;100.00
17525;BME280;40431;52.198;9.902;2023-02-19T05:34:51;100694.09;;;5.32;100.00
17525;BME280;40431;52.198;9.902;2023-02-19T05:37:18;100699.22;;;5.38;100.00
17525;BME280;40431;52.198;9.902;2023-02-19T05:39:44;100707.19;;;5.41;100.00
17525;BME280;40431;52.198;9.902;2023-02-19T05:42:12;100713.31;;;5.45;100.00
17525;BME280;40431;52.198;9.902;2023-02-19T05:44:40;100716.19;;;5.40;100.00
17525;BME280;40431;52.198;9.902;2023-02-19T05:47:06;100716.41;;;5.34;100.00
17525;BME280;40431;52.198;9.902;2023-02-19T05:49:32;100706.63;;;5.31;100.00
17525;BME280;40431;52.198;9.902;2023-02-19T05:51:59;100718.16;;;5.35;100.00
17525;BME280;40431;52.198;9.902;2023-02-19T05:54:26;100716.66;;;5.28;100.00
17525;BME280;40431;52.198;9.902;2023-02-19T05:56:53;100731.09;;;5.24;100.00
17525;BME280;40431;52.198;9.902;2023-02-19T05:59:21;100736.59;;;5.21;100.00
17525;BME280;40431;52.198;9.902;2023-02-19T06:01:50;100738.47;;;5.18;100.00
17525;BME280;40431;52.198;9.902;2023-02-19T06:04:17;100747.22;;;5.24;100.00
17525;BME280;40431;52.198;9.902;2023-02-19T06:06:45;100756.25;;;5.23;100.00
17525;BME280;40431;52.198;9.902;2023-02-19T06:09:11;100751.88;;;5.20;100.00
17525;BME280;40431;52.198;9.902;2023-02-19T06:11:38;100777.13;;;5.14;100.00
17525;BME280;40431;52.198;9.902;2023-02-19T06:14:05;100775.06;;;4.96;100.00
17525;BME280;40431;52.198;9.902;2023-02-19T06:16:31;100790.13;;;4.75;100.00
17525;BME280;40431;52.198;9.902;2023-02-19T06:19:00;100798.16;;;4.76;100.00
17525;BME280;40431;52.198;9.902;2023-02-19T06:21:29;100802.06;;;4.66;100.00
17525;BME280;40431;52.198;9.902;2023-02-19T06:23:55;100807.84;;;4.54;100.00
17525;BME280;40431;52.198;9.902;2023-02-19T06:26:23;100815.34;;;4.42;100.00
17525;BME280;40431;52.198;9.902;2023-02-19T06:28:51;100819.78;;;4.43;100.00
17525;BME280;40431;52.198;9.902;2023-02-19T06:31:21;100830.53;;;4.43;100.00
17525;BME280;40431;52.198;9.902;2023-02-19T06:33:47;100830.91;;;4.31;100.00
17525;BME280;40431;52.198;9.902;2023-02-19T06:36:18;100841.59;;;4.32;100.00
17525;BME280;40431;52.198;9.902;2023-02-19T06:38:44;100839.25;;;4.20;100.00
17525;BME280;40431;52.198;9.902;2023-02-19T06:41:11;100844.03;;;4.10;100.00
17525;BME280;40431;52.198;9.902;2023-02-19T06:43:38;100848.50;;;4.11;100.00
17525;BME280;40431;52.198;9.902;2023-02-19T06:46:06;100856.00;;;3.98;100.00
17525;BME280;40431;52.198;9.902;2023-02-19T06:48:33;100867.91;;;3.90;100.00
17525;BME280;40431;52.198;9.902;2023-02-19T06:51:00;100869.91;;;3.81;100.00
17525;BME280;40431;52.198;9.902;2023-02-19T06:53:28;100890.34;;;3.85;100.00
17525;BME280;40431;52.198;9.902;2023-02-19T06:55:56;100896.09;;;3.72;100.00
17525;BME280;40431;52.198;9.902;2023-02-19T06:58:22;100905.72;;;3.80;100.00
17525;BME280;40431;52.198;9.902;2023-02-19T07:00:48;100910.22;;;3.78;100.00
17525;BME280;40431;52.198;9.902;2023-02-19T07:03:15;100920.38;;;3.67;100.00
17525;BME280;40431;52.198;9.902;2023-02-19T07:05:41;100924.75;;;3.71;100.00
17525;BME280;40431;52.198;9.902;2023-02-19T07:08:08;100936.72;;;3.58;100.00
17525;BME280;40431;52.198;9.902;2023-02-19T07:10:36;100943.09;;;3.52;100.00
17525;BME280;40431;52.198;9.902;2023-02-19T07:13:02;100960.56;;;3.32;100.00
17525;BME280;40431;52.198;9.902;2023-02-19T07:15:28;100962.31;;;3.35;100.00
17525;BME280;40431;52.198;9.902;2023-02-19T07:17:54;100979.25;;;3.36;100.00
17525;BME280;40431;52.198;9.902;2023-02-19T07:20:21;100981.97;;;3.34;100.00
17525;BME280;40431;52.198;9.902;2023-02-19T07:22:47;100981.31;;;3.24;100.00
17525;BME280;40431;52.198;9.902;2023-02-19T07:25:13;100991.78;;;3.35;100.00
17525;BME280;40431;52.198;9.902;2023-02-19T07:27:41;101008.69;;;3.37;100.00
17525;BME280;40431;52.198;9.902;2023-02-19T07:30:09;101024.88;;;3.34;100.00
17525;BME280;40431;52.198;9.902;2023-02-19T07:32:39;101028.75;;;3.21;100.00
17525;BME280;40431;52.198;9.902;2023-02-19T07:35:06;101041.41;;;3.12;100.00
17525;BME280;40431;52.198;9.902;2023-02-19T07:37:32;101036.81;;;3.19;100.00
17525;BME280;40431;52.198;9.902;2023-02-19T07:39:59;101044.72;;;3.25;100.00
17525;BME280;40431;52.198;9.902;2023-02-19T07:42:25;101051.13;;;3.18;100.00
17525;BME280;40431;52.198;9.902;2023-02-19T07:44:53;101061.69;;;3.26;100.00
17525;BME280;40431;52.198;9.902;2023-02-19T07:47:19;101070.31;;;3.39;100.00
17525;BME280;40431;52.198;9.902;2023-02-19T07:49:45;101074.72;;;3.41;100.00
17525;BME280;40431;52.198;9.902;2023-02-19T07:52:12;101080.94;;;3.43;100.00
17525;BME280;40431;52.198;9.902;2023-02-19T07:54:38;101080.38;;;3.29;100.00
17525;BME280;40431;52.198;9.902;2023-02-19T07:57:04;101083.16;;;3.24;100.00
17525;BME280;40431;52.198;9.902;2023-02-19T07:59:31;101090.19;;;3.30;100.00
17525;BME280;40431;52.198;9.902;2023-02-19T08:01:58;101097.94;;;3.42;100.00
17525;BME280;40431;52.198;9.902;2023-02-19T08:04:42;101090.53;;;3.54;100.00
17525;BME280;40431;52.198;9.902;2023-02-19T08:07:09;101095.88;;;3.54;100.00
17525;BME280;40431;52.198;9.902;2023-02-19T08:09:36;101100.38;;;3.53;100.00
17525;BME280;40431;52.198;9.902;2023-02-19T08:12:02;101101.19;;;3.57;100.00
17525;BME280;40431;52.198;9.902;2023-02-19T08:14:46;101104.69;;;3.59;100.00
17525;BME280;40431;52.198;9.902;2023-02-19T08:17:14;101114.56;;;3.58;100.00
17525;BME280;40431;52.198;9.902;2023-02-19T08:19:40;101118.97;;;3.61;100.00
17525;BME280;40431;52.198;9.902;2023-02-19T08:22:07;101120.78;;;3.59;100.00
17525;BME280;40431;52.198;9.902;2023-02-19T08:24:33;101124.22;;;3.67;100.00
17525;BME280;40431;52.198;9.902;2023-02-19T08:27:01;101130.09;;;3.81;100.00
17525;BME280;40431;52.198;9.902;2023-02-19T08:29:28;101143.25;;;3.94;100.00
17525;BME280;40431;52.198;9.902;2023-02-19T08:31:54;101137.66;;;4.03;100.00
17525;BME280;40431;52.198;9.902;2023-02-19T08:34:22;101142.72;;;4.15;100.00
17525;BME280;40431;52.198;9.902;2023-02-19T08:36:48;101155.84;;;4.26;100.00
17525;BME280;40431;52.198;9.902;2023-02-19T08:39:14;101152.06;;;4.35;100.00
17525;BME280;40431;52.198;9.902;2023-02-19T08:41:41;101151.94;;;4.40;100.00
17525;BME280;40431;52.198;9.902;2023-02-19T08:44:07;101165.97;;;4.51;100.00
17525;BME280;40431;52.198;9.902;2023-02-19T08:46:33;101161.47;;;4.51;100.00
17525;BME280;40431;52.198;9.902;2023-02-19T08:49:00;101161.38;;;4.55;100.00
17525;BME280;40431;52.198;9.902;2023-02-19T08:51:27;101170.44;;;4.50;100.00
17525;BME280;40431;52.198;9.902;2023-02-19T08:53:54;101158.84;;;4.50;100.00
17525;BME280;40431;52.198;9.902;2023-02-19T08:56:20;101155.97;;;4.58;100.00
17525;BME280;40431;52.198;9.902;2023-02-19T08:58:46;101158.34;;;4.68;100.00
17525;BME280;40431;52.198;9.902;2023-02-19T09:01:14;101165.19;;;4.80;100.00
17525;BME280;40431;52.198;9.902;2023-02-19T09:03:42;101165.16;;;4.82;100.00
17525;BME280;40431;52.198;9.902;2023-02-19T09:06:12;101164.91;;;4.91;100.00
17525;BME280;40431;52.198;9.902;2023-02-19T09:08:41;101162.16;;;4.93;100.00
17525;BME280;40431;52.198;9.902;2023-02-19T09:11:07;101159.47;;;4.93;100.00
17525;BME280;40431;52.198;9.902;2023-02-19T09:13:34;101162.06;;;4.96;100.00
17525;BME280;40431;52.198;9.902;2023-02-19T09:16:02;101168.41;;;4.95;100.00
17525;BME280;40431;52.198;9.902;2023-02-19T09:18:28;101170.94;;;4.99;100.00
17525;BME280;40431;52.198;9.902;2023-02-19T09:20:58;101181.56;;;5.04;100.00
17525;BME280;40431;52.198;9.902;2023-02-19T09:23:25;101183.16;;;5.11;100.00
17525;BME280;40431;52.198;9.902;2023-02-19T09:25:56;101192.06;;;5.13;100.00
17525;BME280;40431;52.198;9.902;2023-02-19T09:28:24;101211.66;;;5.18;100.00
17525;BME280;40431;52.198;9.902;2023-02-19T09:30:50;101211.59;;;5.20;100.00
17525;BME280;40431;52.198;9.902;2023-02-19T09:33:16;101214.34;;;5.17;100.00
17525;BME280;40431;52.198;9.902;2023-02-19T09:35:43;101214.34;;;5.17;100.00
17525;BME280;40431;52.198;9.902;2023-02-19T09:38:09;101215.97;;;5.24;100.00
17525;BME280;40431;52.198;9.902;2023-02-19T09:40:36;101226.53;;;5.30;100.00
17525;BME280;40431;52.198;9.902;2023-02-19T09:43:06;101222.16;;;5.28;100.00
17525;BME280;40431;52.198;9.902;2023-02-19T09:45:34;101216.94;;;5.22;100.00
17525;BME280;40431;52.198;9.902;2023-02-19T09:48:03;101219.41;;;5.29;100.00
17525;BME280;40431;52.198;9.902;2023-02-19T09:50:33;101222.00;;;5.32;100.00
17525;BME280;40431;52.198;9.902;2023-02-19T09:53:02;101230.09;;;5.31;100.00
17525;BME280;40431;52.198;9.902;2023-02-19T09:55:32;101237.97;;;5.37;100.00
17525;BME280;40431;52.198;9.902;2023-02-19T09:58:02;101251.41;;;5.39;100.00
17525;BME280;40431;52.198;9.902;2023-02-19T10:00:35;101258.31;;;5.47;100.00
17525;BME280;40431;52.198;9.902;2023-02-19T10:03:04;101257.41;;;5.48;100.00
17525;BME280;40431;52.198;9.902;2023-02-19T10:05:32;101259.94;;;5.53;100.00
17525;BME280;40431;52.198;9.902;2023-02-19T10:07:59;101268.06;;;5.51;100.00
17525;BME280;40431;52.198;9.902;2023-02-19T10:10:31;101264.63;;;5.46;100.00
17525;BME280;40431;52.198;9.902;2023-02-19T10:13:11;101279.03;;;5.45;100.00
17525;BME280;40431;52.198;9.902;2023-02-19T10:15:45;101292.38;;;5.48;100.00
17525;BME280;40431;52.198;9.902;2023-02-19T10:18:16;101288.81;;;5.46;100.00
17525;BME280;40431;52.198;9.902;2023-02-19T10:20:43;101300.44;;;5.48;100.00
17525;BME280;40431;52.198;9.902;2023-02-19T10:23:12;101301.94;;;5.59;100.00
17525;BME280;40431;52.198;9.902;2023-02-19T10:25:43;101307.06;;;5.68;100.00
17525;BME280;40431;52.198;9.902;2023-02-19T10:28:13;101313.22;;;5.72;100.00
17525;BME280;40431;52.198;9.902;2023-02-19T10:30:42;101321.09;;;5.79;100.00
17525;BME280;40431;52.198;9.902;2023-02-19T10:33:10;101338.63;;;5.93;100.00
17525;BME280;40431;52.198;9.902;2023-02-19T10:35:51;101351.78;;;6.05;100.00
17525;BME280;40431;52.198;9.902;2023-02-19T10:38:19;101343.06;;;5.95;100.00
17525;BME280;40431;52.198;9.902;2023-02-19T10:40:47;101346.53;;;6.00;100.00
17525;BME280;40431;52.198;9.902;2023-02-19T10:43:21;101350.38;;;5.90;100.00
17525;BME280;40431;52.198;9.902;2023-02-19T10:45:51;101354.72;;;5.96;100.00
17525;BME280;40431;52.198;9.902;2023-02-19T10:48:21;101363.59;;;6.01;100.00
17525;BME280;40431;52.198;9.902;2023-02-19T10:50:51;101369.94;;;5.98;100.00
17525;BME280;40431;52.198;9.902;2023-02-19T10:53:23;101359.13;;;6.00;100.00
17525;BME280;40431;52.198;9.902;2023-02-19T10:56:05;101363.44;;;6.06;100.00
17525;BME280;40431;52.198;9.902;2023-02-19T10:58:32;101363.34;;;6.09;100.00
17525;BME280;40431;52.198;9.902;2023-02-19T11:01:17;101350.78;;;6.09;100.00
17525;BME280;40431;52.198;9.902;2023-02-19T11:03:49;101341.56;;;6.16;100.00
17525;BME280;40431;52.198;9.902;2023-02-19T11:06:17;101346.97;;;6.16;100.00
17525;BME280;40431;52.198;9.902;2023-02-19T11:08:47;101346.03;;;6.17;100.00
17525;BME280;40431;52.198;9.902;2023-02-19T11:11:27;101345.81;;;6.25;100.00
17525;BME280;40431;52.198;9.902;2023-02-19T11:13:56;101353.69;;;6.31;100.00
17525;BME280;40431;52.198;9.902;2023-02-19T11:16:40;101358.31;;;6.28;100.00
17525;BME280;40431;52.198;9.902;2023-02-19T11:19:21;101353.31;;;6.14;100.00
17525;BME280;40431;52.198;9.902;2023-02-19T11:21:48;101348.72;;;6.17;100.00
17525;BME280;40431;52.198;9.902;2023-02-19T11:24:22;101352.53;;;6.10;100.00
17525;BME280;40431;52.198;9.902;2023-02-19T11:26:48;101352.34;;;6.16;100.00
17525;BME280;40431;52.198;9.902;2023-02-19T11:29:17;101357.69;;;6.18;100.00
17525;BME280;40431;52.198;9.902;2023-02-19T11:31:48;101366.81;;;6.12;100.00
17525;BME280;40431;52.198;9.902;2023-02-19T11:34:27;101365.16;;;6.08;100.00
17525;BME280;40431;52.198;9.902;2023-02-19T11:37:09;101375.28;;;6.00;100.00
17525;BME280;40431;52.198;9.902;2023-02-19T11:39:35;101379.53;;;6.07;100.00
17525;BME280;40431;52.198;9.902;2023-02-19T11:42:18;101368.28;;;6.24;100.00
17525;BME280;40431;52.198;9.902;2023-02-19T11:44:57;101362.56;;;6.35;100.00
17525;BME280;40431;52.198;9.902;2023-02-19T11:47:44;101367.56;;;6.47;100.00
17525;BME280;40431;52.198;9.902;2023-02-19T11:50:21;101369.16;;;6.55;100.00
17525;BME280;40431;52.198;9.902;2023-02-19T11:53:02;101374.19;;;6.37;100.00
17525;BME280;40431;52.198;9.902;2023-02-19T11:55:40;101368.28;;;6.24;100.00
17525;BME280;40431;52.198;9.902;2023-02-19T11:58:23;101374.41;;;6.29;100.00
17525;BME280;40431;52.198;9.902;2023-02-19T12:01:02;101380.38;;;6.39;100.00
17525;BME280;40431;52.198;9.902;2023-02-19T12:03:53;101366.41;;;6.56;100.00
17525;BME280;40431;52.198;9.902;2023-02-19T12:06:29;101367.16;;;6.61;100.00
17525;BME280;40431;52.198;9.902;2023-02-19T12:09:15;101363.53;;;6.62;100.00
17525;BME280;40431;52.198;9.902;2023-02-19T12:15:07;101361.25;;;6.48;100.00
17525;BME280;40431;52.198;9.902;2023-02-19T12:20:41;101359.47;;;6.47;99.43
17525;BME280;40431;52.198;9.902;2023-02-19T12:23:35;101359.31;;;6.54;98.72
17525;BME280;40431;52.198;9.902;2023-02-19T12:26:08;101362.72;;;6.59;99.28
17525;BME280;40431;52.198;9.902;2023-02-19T12:29:00;101364.50;;;6.60;99.07
17525;BME280;40431;52.198;9.902;2023-02-19T12:31:58;101356.25;;;6.64;99.41
17525;BME280;40431;52.198;9.902;2023-02-19T12:34:39;101371.09;;;6.78;100.00
17525;BME280;40431;52.198;9.902;2023-02-19T12:37:21;101365.66;;;6.79;100.00
17525;BME280;40431;52.198;9.902;2023-02-19T12:39:58;101373.75;;;6.79;100.00
17525;BME280;40431;52.198;9.902;2023-02-19T12:42:39;101369.94;;;6.87;100.00
17525;BME280;40431;52.198;9.902;2023-02-19T12:45:15;101373.66;;;6.82;97.13
17525;BME280;40431;52.198;9.902;2023-02-19T12:47:52;101381.16;;;6.73;95.12
17525;BME280;40431;52.198;9.902;2023-02-19T12:50:22;101375.63;;;6.77;94.58
17525;BME280;40431;52.198;9.902;2023-02-19T12:52:55;101393.41;;;6.83;95.20
17525;BME280;40431;52.198;9.902;2023-02-19T12:55:26;101393.47;;;6.81;95.49
17525;BME280;40431;52.198;9.902;2023-02-19T12:57:55;101395.13;;;6.85;91.50
17525;BME280;40431;52.198;9.902;2023-02-19T13:00:29;101402.00;;;6.96;93.05
17525;BME280;40431;52.198;9.902;2023-02-19T13:02:59;101401.41;;;6.86;93.45
17525;BME280;40431;52.198;9.902;2023-02-19T13:05:37;101394.69;;;6.99;95.59
17525;BME280;40431;52.198;9.902;2023-02-19T13:08:13;101396.13;;;7.10;94.31
17525;BME280;40431;52.198;9.902;2023-02-19T13:10:43;101388.09;;;7.08;93.25
17525;BME280;40431;52.198;9.902;2023-02-19T13:13:14;101392.56;;;7.09;90.99
17525;BME280;40431;52.198;9.902;2023-02-19T13:15:44;101395.16;;;7.12;88.05